sensor_id;sensor_type;location;lat;lon;timestamp;P1;durP1;ratioP1;P2;durP2;ratioP2
75098;SDS011;63685;47.374;8.498;2022-11-20T00:00:02;10.10;;;3.38;;
75098;SDS011;63685;47.374;8.498;2022-11-20T00:02:29;8.27;;;2.85;;
75098;SDS011;63685;47.374;8.498;2022-11-20T00:04:54;8.80;;;2.90;;
75098;SDS011;63685;47.374;8.498;2022-11-20T00:07:20;7.45;;;3.17;;
75098;SDS011;63685;47.374;8.498;2022-11-20T00:09:45;11.80;;;3.40;;
75098;SDS011;63685;47.374;8.498;2022-11-20T00:12:11;8.95;;;3.63;;
75098;SDS011;63685;47.374;8.498;2022-11-20T00:14:37;11.07;;;3.67;;
75098;SDS011;63685;47.374;8.498;2022-11-20T00:17:02;7.32;;;3.17;;
75098;SDS011;63685;47.374;8.498;2022-11-20T00:19:28;8.35;;;3.38;;
75098;SDS011;63685;47.374;8.498;2022-11-20T00:21:53;7.45;;;3.20;;
75098;SDS011;63685;47.374;8.498;2022-11-20T00:24:20;9.40;;;3.22;;
75098;SDS011;63685;47.374;8.498;2022-11-20T00:26:46;10.05;;;2.70;;
75098;SDS011;63685;47.374;8.498;2022-11-20T00:29:11;8.65;;;3.40;;
75098;SDS011;63685;47.374;8.498;2022-11-20T00:31:37;9.50;;;3.40;;
75098;SDS011;63685;47.374;8.498;2022-11-20T00:34:03;9.43;;;3.05;;
75098;SDS011;63685;47.374;8.498;2022-11-20T00:36:31;8.77;;;3.17;;
75098;SDS011;63685;47.374;8.498;2022-11-20T00:38:58;10.35;;;2.85;;
75098;SDS011;63685;47.374;8.498;2022-11-20T00:41:24;8.38;;;3.00;;
75098;SDS011;63685;47.374;8.498;2022-11-20T00:43:52;9.25;;;2.92;;
75098;SDS011;63685;47.374;8.498;2022-11-20T00:46:19;9.85;;;2.88;;
75098;SDS011;63685;47.374;8.498;2022-11-20T00:48:49;8.80;;;3.20;;
75098;SDS011;63685;47.374;8.498;2022-11-20T00:51:16;6.68;;;3.05;;
75098;SDS011;63685;47.374;8.498;2022-11-20T00:53:44;6.93;;;2.65;;
75098;SDS011;63685;47.374;8.498;2022-11-20T00:56:12;6.35;;;2.78;;
75098;SDS011;63685;47.374;8.498;2022-11-20T00:58:40;5.30;;;2.53;;
75098;SDS011;63685;47.374;8.498;2022-11-20T01:01:11;8.55;;;3.15;;
75098;SDS011;63685;47.374;8.498;2022-11-20T01:03:39;7.20;;;2.83;;
75098;SDS011;63685;47.374;8.498;2022-11-20T01:06:09;6.97;;;2.60;;
75098;SDS011;63685;47.374;8.498;2022-11-20T01:08:36;8.82;;;2.95;;
75098;SDS011;63685;47.374;8.498;2022-11-20T01:11:03;6.10;;;2.60;;
75098;SDS011;63685;47.374;8.498;2022-11-20T01:13:33;7.95;;;2.95;;
75098;SDS011;63685;47.374;8.498;2022-11-20T01:16:03;6.65;;;2.95;;
75098;SDS011;63685;47.374;8.498;2022-11-20T01:18:31;7.78;;;2.90;;
75098;SDS011;63685;47.374;8.498;2022-11-20T01:21:00;8.15;;;3.22;;
75098;SDS011;63685;47.374;8.498;2022-11-20T01:23:34;5.63;;;2.70;;
75098;SDS011;63685;47.374;8.498;2022-11-20T01:26:01;8.20;;;3.05;;
75098;SDS011;63685;47.374;8.498;2022-11-20T01:28:32;10.18;;;2.58;;
75098;SDS011;63685;47.374;8.498;2022-11-20T01:30:58;8.23;;;2.72;;
75098;SDS011;63685;47.374;8.498;2022-11-20T01:33:24;7.30;;;2.85;;
75098;SDS011;63685;47.374;8.498;2022-11-20T01:35:50;7.32;;;2.92;;
75098;SDS011;63685;47.374;8.498;2022-11-20T01:38:16;9.68;;;2.83;;
75098;SDS011;63685;47.374;8.498;2022-11-20T01:40:42;7.57;;;2.38;;
75098;SDS011;63685;47.374;8.498;2022-11-20T01:43:16;10.25;;;3.00;;
75098;SDS011;63685;47.374;8.498;2022-11-20T01:45:56;7.28;;;2.42;;
75098;SDS011;63685;47.374;8.498;2022-11-20T01:48:30;5.97;;;2.47;;
75098;SDS011;63685;47.374;8.498;2022-11-20T01:51:24;7.07;;;2.60;;
75098;SDS011;63685;47.374;8.498;2022-11-20T01:53:55;5.80;;;2.53;;
75098;SDS011;63685;47.374;8.498;2022-11-20T01:56:25;5.65;;;2.50;;
75098;SDS011;63685;47.374;8.498;2022-11-20T01:58:54;6.10;;;2.63;;
75098;SDS011;63685;47.374;8.498;2022-11-20T02:01:23;4.97;;;2.60;;
75098;SDS011;63685;47.374;8.498;2022-11-20T02:03:49;7.85;;;2.70;;
75098;SDS011;63685;47.374;8.498;2022-11-20T02:06:29;7.05;;;2.25;;
75098;SDS011;63685;47.374;8.498;2022-11-20T02:09:00;6.47;;;2.30;;
75098;SDS011;63685;47.374;8.498;2022-11-20T02:11:25;6.45;;;2.85;;
75098;SDS011;63685;47.374;8.498;2022-11-20T02:13:51;7.65;;;2.70;;
75098;SDS011;63685;47.374;8.498;2022-11-20T02:16:19;6.05;;;2.13;;
75098;SDS011;63685;47.374;8.498;2022-11-20T02:18:50;4.40;;;2.08;;
75098;SDS011;63685;47.374;8.498;2022-11-20T02:21:34;6.85;;;2.47;;
75098;SDS011;63685;47.374;8.498;2022-11-20T02:24:19;6.40;;;2.35;;
75098;SDS011;63685;47.374;8.498;2022-11-20T02:29:28;6.60;;;2.60;;
75098;SDS011;63685;47.374;8.498;2022-11-20T02:31:58;5.82;;;2.20;;
75098;SDS011;63685;47.374;8.498;2022-11-20T02:34:26;5.80;;;2.00;;
75098;SDS011;63685;47.374;8.498;2022-11-20T02:36:53;7.50;;;2.20;;
75098;SDS011;63685;47.374;8.498;2022-11-20T02:39:20;6.10;;;2.30;;
75098;SDS011;63685;47.374;8.498;2022-11-20T02:41:47;6.10;;;2.22;;
75098;SDS011;63685;47.374;8.498;2022-11-20T02:44:13;8.45;;;2.50;;
75098;SDS011;63685;47.374;8.498;2022-11-20T02:46:38;5.72;;;2.30;;
75098;SDS011;63685;47.374;8.498;2022-11-20T02:49:04;4.75;;;2.30;;
75098;SDS011;63685;47.374;8.498;2022-11-20T02:51:30;6.43;;;2.00;;
75098;SDS011;63685;47.374;8.498;2022-11-20T02:53:57;6.32;;;2.50;;
75098;SDS011;63685;47.374;8.498;2022-11-20T02:56:22;5.03;;;1.98;;
75098;SDS011;63685;47.374;8.498;2022-11-20T02:58:49;7.07;;;2.17;;
75098;SDS011;63685;47.374;8.498;2022-11-20T03:01:14;6.88;;;2.30;;
75098;SDS011;63685;47.374;8.498;2022-11-20T03:03:40;5.45;;;2.30;;
75098;SDS011;63685;47.374;8.498;2022-11-20T03:06:05;5.55;;;2.10;;
75098;SDS011;63685;47.374;8.498;2022-11-20T03:08:31;5.30;;;2.45;;
75098;SDS011;63685;47.374;8.498;2022-11-20T03:11:01;4.80;;;2.20;;
75098;SDS011;63685;47.374;8.498;2022-11-20T03:13:31;6.22;;;2.05;;
75098;SDS011;63685;47.374;8.498;2022-11-20T03:15:57;6.72;;;2.35;;
75098;SDS011;63685;47.374;8.498;2022-11-20T03:18:22;5.68;;;2.35;;
75098;SDS011;63685;47.374;8.498;2022-11-20T03:20:48;9.43;;;2.33;;
75098;SDS011;63685;47.374;8.498;2022-11-20T03:23:13;5.35;;;1.92;;
75098;SDS011;63685;47.374;8.498;2022-11-20T03:25:39;3.50;;;1.70;;
75098;SDS011;63685;47.374;8.498;2022-11-20T03:28:04;6.95;;;2.28;;
75098;SDS011;63685;47.374;8.498;2022-11-20T03:30:30;5.35;;;2.13;;
75098;SDS011;63685;47.374;8.498;2022-11-20T03:32:55;6.85;;;2.22;;
75098;SDS011;63685;47.374;8.498;2022-11-20T03:35:21;5.20;;;1.95;;
75098;SDS011;63685;47.374;8.498;2022-11-20T03:37:46;7.65;;;2.10;;
75098;SDS011;63685;47.374;8.498;2022-11-20T03:40:13;5.38;;;2.35;;
75098;SDS011;63685;47.374;8.498;2022-11-20T03:42:38;5.65;;;2.10;;
75098;SDS011;63685;47.374;8.498;2022-11-20T03:45:10;7.22;;;1.88;;
75098;SDS011;63685;47.374;8.498;2022-11-20T03:47:36;5.40;;;1.90;;
75098;SDS011;63685;47.374;8.498;2022-11-20T03:50:02;5.70;;;1.83;;
75098;SDS011;63685;47.374;8.498;2022-11-20T03:52:28;5.25;;;1.88;;
75098;SDS011;63685;47.374;8.498;2022-11-20T03:54:53;8.23;;;2.22;;
75098;SDS011;63685;47.374;8.498;2022-11-20T03:57:19;4.82;;;2.25;;
75098;SDS011;63685;47.374;8.498;2022-11-20T03:59:44;6.78;;;2.13;;
75098;SDS011;63685;47.374;8.498;2022-11-20T04:02:10;5.22;;;1.83;;
75098;SDS011;63685;47.374;8.498;2022-11-20T04:04:35;5.22;;;2.05;;
75098;SDS011;63685;47.374;8.498;2022-11-20T04:07:01;7.38;;;1.88;;
75098;SDS011;63685;47.374;8.498;2022-11-20T04:09:27;4.85;;;1.70;;
75098;SDS011;63685;47.374;8.498;2022-11-20T04:11:52;3.75;;;1.90;;
75098;SDS011;63685;47.374;8.498;2022-11-20T04:14:18;3.90;;;2.10;;
75098;SDS011;63685;47.374;8.498;2022-11-20T04:16:43;4.35;;;2.30;;
75098;SDS011;63685;47.374;8.498;2022-11-20T04:19:10;3.65;;;1.67;;
75098;SDS011;63685;47.374;8.498;2022-11-20T04:21:37;4.72;;;1.98;;
75098;SDS011;63685;47.374;8.498;2022-11-20T04:24:03;6.85;;;2.20;;
75098;SDS011;63685;47.374;8.498;2022-11-20T04:26:29;4.30;;;1.88;;
75098;SDS011;63685;47.374;8.498;2022-11-20T04:28:55;7.53;;;2.17;;
75098;SDS011;63685;47.374;8.498;2022-11-20T04:31:23;6.47;;;1.73;;
75098;SDS011;63685;47.374;8.498;2022-11-20T04:33:51;7.30;;;1.50;;
75098;SDS011;63685;47.374;8.498;2022-11-20T04:36:18;5.35;;;1.73;;
75098;SDS011;63685;47.374;8.498;2022-11-20T04:38:45;9.15;;;2.08;;
75098;SDS011;63685;47.374;8.498;2022-11-20T04:41:16;5.70;;;2.10;;
75098;SDS011;63685;47.374;8.498;2022-11-20T04:43:47;5.55;;;1.77;;
75098;SDS011;63685;47.374;8.498;2022-11-20T04:46:14;3.80;;;1.67;;
75098;SDS011;63685;47.374;8.498;2022-11-20T04:48:40;4.65;;;1.83;;
75098;SDS011;63685;47.374;8.498;2022-11-20T04:51:06;4.38;;;2.00;;
75098;SDS011;63685;47.374;8.498;2022-11-20T04:53:32;3.78;;;1.55;;
75098;SDS011;63685;47.374;8.498;2022-11-20T04:56:01;7.00;;;1.85;;
75098;SDS011;63685;47.374;8.498;2022-11-20T04:58:28;4.70;;;1.70;;
75098;SDS011;63685;47.374;8.498;2022-11-20T05:01:00;3.30;;;1.35;;
75098;SDS011;63685;47.374;8.498;2022-11-20T05:03:29;3.95;;;1.80;;
75098;SDS011;63685;47.374;8.498;2022-11-20T05:05:55;3.45;;;1.55;;
75098;SDS011;63685;47.374;8.498;2022-11-20T05:08:21;4.03;;;1.77;;
75098;SDS011;63685;47.374;8.498;2022-11-20T05:10:46;4.72;;;1.90;;
75098;SDS011;63685;47.374;8.498;2022-11-20T05:13:12;4.90;;;1.88;;
75098;SDS011;63685;47.374;8.498;2022-11-20T05:15:38;3.33;;;1.60;;
75098;SDS011;63685;47.374;8.498;2022-11-20T05:18:03;5.43;;;1.60;;
75098;SDS011;63685;47.374;8.498;2022-11-20T05:20:29;3.17;;;1.50;;
75098;SDS011;63685;47.374;8.498;2022-11-20T05:22:57;3.15;;;1.52;;
75098;SDS011;63685;47.374;8.498;2022-11-20T05:25:23;3.90;;;1.58;;
75098;SDS011;63685;47.374;8.498;2022-11-20T05:27:48;4.85;;;1.85;;
75098;SDS011;63685;47.374;8.498;2022-11-20T05:30:14;3.92;;;1.40;;
75098;SDS011;63685;47.374;8.498;2022-11-20T05:32:39;3.30;;;1.73;;
75098;SDS011;63685;47.374;8.498;2022-11-20T05:35:05;2.92;;;1.58;;
75098;SDS011;63685;47.374;8.498;2022-11-20T05:37:31;5.18;;;1.42;;
75098;SDS011;63685;47.374;8.498;2022-11-20T05:39:57;3.30;;;1.88;;
75098;SDS011;63685;47.374;8.498;2022-11-20T05:42:22;7.20;;;1.58;;
75098;SDS011;63685;47.374;8.498;2022-11-20T05:44:58;3.72;;;1.20;;
75098;SDS011;63685;47.374;8.498;2022-11-20T05:47:25;4.90;;;1.58;;
75098;SDS011;63685;47.374;8.498;2022-11-20T05:49:56;7.25;;;1.52;;
75098;SDS011;63685;47.374;8.498;2022-11-20T05:52:22;4.82;;;1.98;;
75098;SDS011;63685;47.374;8.498;2022-11-20T05:54:47;5.65;;;1.60;;
75098;SDS011;63685;47.374;8.498;2022-11-20T05:57:13;4.50;;;1.67;;
75098;SDS011;63685;47.374;8.498;2022-11-20T05:59:38;4.10;;;1.60;;
75098;SDS011;63685;47.374;8.498;2022-11-20T06:02:04;4.07;;;1.55;;
75098;SDS011;63685;47.374;8.498;2022-11-20T06:04:29;7.22;;;1.60;;
75098;SDS011;63685;47.374;8.498;2022-11-20T06:06:55;4.25;;;1.77;;
75098;SDS011;63685;47.374;8.498;2022-11-20T06:09:20;5.38;;;1.90;;
75098;SDS011;63685;47.374;8.498;2022-11-20T06:11:46;5.10;;;1.45;;
75098;SDS011;63685;47.374;8.498;2022-11-20T06:14:11;5.55;;;1.65;;
75098;SDS011;63685;47.374;8.498;2022-11-20T06:16:37;5.50;;;1.58;;
75098;SDS011;63685;47.374;8.498;2022-11-20T06:19:03;3.55;;;1.67;;
75098;SDS011;63685;47.374;8.498;2022-11-20T06:21:28;14.05;;;2.20;;
75098;SDS011;63685;47.374;8.498;2022-11-20T06:23:54;4.45;;;1.60;;
75098;SDS011;63685;47.374;8.498;2022-11-20T06:26:23;3.22;;;1.30;;
75098;SDS011;63685;47.374;8.498;2022-11-20T06:28:51;2.90;;;1.23;;
75098;SDS011;63685;47.374;8.498;2022-11-20T06:31:18;3.80;;;1.40;;
75098;SDS011;63685;47.374;8.498;2022-11-20T06:33:45;5.50;;;1.60;;
75098;SDS011;63685;47.374;8.498;2022-11-20T06:36:12;7.22;;;1.77;;
75098;SDS011;63685;47.374;8.498;2022-11-20T06:38:39;6.40;;;1.65;;
75098;SDS011;63685;47.374;8.498;2022-11-20T06:41:06;4.28;;;1.48;;
75098;SDS011;63685;47.374;8.498;2022-11-20T06:43:34;4.40;;;1.60;;
75098;SDS011;63685;47.374;8.498;2022-11-20T06:46:00;4.75;;;1.85;;
75098;SDS011;63685;47.374;8.498;2022-11-20T06:48:26;4.03;;;1.60;;
75098;SDS011;63685;47.374;8.498;2022-11-20T06:50:52;7.72;;;2.00;;
75098;SDS011;63685;47.374;8.498;2022-11-20T06:53:18;4.53;;;1.50;;
75098;SDS011;63685;47.374;8.498;2022-11-20T06:55:44;4.95;;;1.55;;
75098;SDS011;63685;47.374;8.498;2022-11-20T06:58:11;3.97;;;1.60;;
75098;SDS011;63685;47.374;8.498;2022-11-20T07:00:37;4.28;;;1.40;;
75098;SDS011;63685;47.374;8.498;2022-11-20T07:03:03;3.67;;;1.50;;
75098;SDS011;63685;47.374;8.498;2022-11-20T07:05:32;5.03;;;1.52;;
75098;SDS011;63685;47.374;8.498;2022-11-20T07:07:58;3.28;;;1.50;;
75098;SDS011;63685;47.374;8.498;2022-11-20T07:10:24;4.13;;;1.35;;
75098;SDS011;63685;47.374;8.498;2022-11-20T07:12:50;5.63;;;1.55;;
75098;SDS011;63685;47.374;8.498;2022-11-20T07:15:17;3.42;;;1.48;;
75098;SDS011;63685;47.374;8.498;2022-11-20T07:17:44;4.88;;;1.50;;
75098;SDS011;63685;47.374;8.498;2022-11-20T07:20:10;3.97;;;1.33;;
75098;SDS011;63685;47.374;8.498;2022-11-20T07:22:36;4.05;;;1.60;;
75098;SDS011;63685;47.374;8.498;2022-11-20T07:25:02;5.88;;;1.60;;
75098;SDS011;63685;47.374;8.498;2022-11-20T07:27:29;3.25;;;1.73;;
75098;SDS011;63685;47.374;8.498;2022-11-20T07:29:54;3.80;;;1.42;;
75098;SDS011;63685;47.374;8.498;2022-11-20T07:32:20;3.97;;;1.50;;
75098;SDS011;63685;47.374;8.498;2022-11-20T07:34:46;3.67;;;1.60;;
75098;SDS011;63685;47.374;8.498;2022-11-20T07:37:12;3.15;;;1.50;;
75098;SDS011;63685;47.374;8.498;2022-11-20T07:39:38;4.55;;;1.60;;
75098;SDS011;63685;47.374;8.498;2022-11-20T07:42:03;4.00;;;1.20;;
75098;SDS011;63685;47.374;8.498;2022-11-20T07:44:29;3.45;;;1.17;;
75098;SDS011;63685;47.374;8.498;2022-11-20T07:46:54;4.45;;;1.40;;
75098;SDS011;63685;47.374;8.498;2022-11-20T07:49:20;4.85;;;2.05;;
75098;SDS011;63685;47.374;8.498;2022-11-20T07:51:45;5.88;;;1.30;;
75098;SDS011;63685;47.374;8.498;2022-11-20T07:54:11;3.13;;;1.30;;
75098;SDS011;63685;47.374;8.498;2022-11-20T07:56:36;3.47;;;1.33;;
75098;SDS011;63685;47.374;8.498;2022-11-20T07:59:02;3.05;;;1.20;;
75098;SDS011;63685;47.374;8.498;2022-11-20T08:01:28;4.32;;;1.27;;
75098;SDS011;63685;47.374;8.498;2022-11-20T08:03:54;2.92;;;1.23;;
75098;SDS011;63685;47.374;8.498;2022-11-20T08:06:19;4.85;;;1.67;;
75098;SDS011;63685;47.374;8.498;2022-11-20T08:08:45;4.07;;;1.77;;
75098;SDS011;63685;47.374;8.498;2022-11-20T08:11:10;4.03;;;1.38;;
75098;SDS011;63685;47.374;8.498;2022-11-20T08:13:54;6.45;;;1.80;;
75098;SDS011;63685;47.374;8.498;2022-11-20T08:16:39;5.45;;;1.48;;
75098;SDS011;63685;47.374;8.498;2022-11-20T08:19:05;3.08;;;1.50;;
75098;SDS011;63685;47.374;8.498;2022-11-20T08:21:32;6.20;;;1.50;;
75098;SDS011;63685;47.374;8.498;2022-11-20T08:23:58;4.57;;;1.33;;
75098;SDS011;63685;47.374;8.498;2022-11-20T08:26:24;6.15;;;1.98;;
75098;SDS011;63685;47.374;8.498;2022-11-20T08:28:52;13.10;;;2.22;;
75098;SDS011;63685;47.374;8.498;2022-11-20T08:31:19;7.28;;;2.28;;
75098;SDS011;63685;47.374;8.498;2022-11-20T08:33:45;7.50;;;1.75;;
75098;SDS011;63685;47.374;8.498;2022-11-20T08:36:11;8.10;;;1.90;;
75098;SDS011;63685;47.374;8.498;2022-11-20T08:38:36;9.15;;;1.80;;
75098;SDS011;63685;47.374;8.498;2022-11-20T08:41:03;16.25;;;2.80;;
75098;SDS011;63685;47.374;8.498;2022-11-20T08:43:48;4.30;;;1.65;;
75098;SDS011;63685;47.374;8.498;2022-11-20T08:46:25;3.78;;;1.63;;
75098;SDS011;63685;47.374;8.498;2022-11-20T08:48:52;33.10;;;8.23;;
75098;SDS011;63685;47.374;8.498;2022-11-20T08:51:18;7.32;;;1.90;;
75098;SDS011;63685;47.374;8.498;2022-11-20T08:53:44;3.92;;;1.40;;
75098;SDS011;63685;47.374;8.498;2022-11-20T08:56:10;3.80;;;1.30;;
75098;SDS011;63685;47.374;8.498;2022-11-20T08:58:37;2.17;;;1.10;;
75098;SDS011;63685;47.374;8.498;2022-11-20T09:01:03;2.80;;;1.05;;
75098;SDS011;63685;47.374;8.498;2022-11-20T09:03:29;3.63;;;1.27;;
75098;SDS011;63685;47.374;8.498;2022-11-20T09:05:58;2.08;;;1.15;;
75098;SDS011;63685;47.374;8.498;2022-11-20T09:08:28;1.98;;;0.95;;
75098;SDS011;63685;47.374;8.498;2022-11-20T09:10:55;1.85;;;0.90;;
75098;SDS011;63685;47.374;8.498;2022-11-20T09:13:23;1.90;;;0.90;;
75098;SDS011;63685;47.374;8.498;2022-11-20T09:15:55;1.70;;;0.90;;
75098;SDS011;63685;47.374;8.498;2022-11-20T09:18:22;1.88;;;0.70;;
75098;SDS011;63685;47.374;8.498;2022-11-20T09:20:49;1.77;;;0.80;;
75098;SDS011;63685;47.374;8.498;2022-11-20T09:23:15;2.15;;;1.00;;
75098;SDS011;63685;47.374;8.498;2022-11-20T09:25:41;2.25;;;1.08;;
75098;SDS011;63685;47.374;8.498;2022-11-20T09:28:07;2.28;;;0.90;;
75098;SDS011;63685;47.374;8.498;2022-11-20T09:30:33;2.10;;;0.90;;
75098;SDS011;63685;47.374;8.498;2022-11-20T09:32:58;1.70;;;0.88;;
75098;SDS011;63685;47.374;8.498;2022-11-20T09:35:24;2.15;;;0.80;;
75098;SDS011;63685;47.374;8.498;2022-11-20T09:37:49;2.13;;;1.00;;
75098;SDS011;63685;47.374;8.498;2022-11-20T09:40:22;1.52;;;0.93;;
75098;SDS011;63685;47.374;8.498;2022-11-20T09:45:44;16.63;;;4.10;;
75098;SDS011;63685;47.374;8.498;2022-11-20T09:54:17;14.52;;;3.90;;
75098;SDS011;63685;47.374;8.498;2022-11-20T09:56:50;12.60;;;4.25;;
75098;SDS011;63685;47.374;8.498;2022-11-20T09:59:40;10.32;;;3.88;;
75098;SDS011;63685;47.374;8.498;2022-11-20T10:04:53;15.57;;;4.13;;
75098;SDS011;63685;47.374;8.498;2022-11-20T10:08:04;12.45;;;3.92;;
75098;SDS011;63685;47.374;8.498;2022-11-20T10:10:47;14.23;;;4.10;;
75098;SDS011;63685;47.374;8.498;2022-11-20T10:16:15;15.48;;;4.50;;
75098;SDS011;63685;47.374;8.498;2022-11-20T10:18:58;14.43;;;4.15;;
75098;SDS011;63685;47.374;8.498;2022-11-20T10:24:31;11.25;;;3.70;;
75098;SDS011;63685;47.374;8.498;2022-11-20T10:27:23;11.93;;;4.07;;
75098;SDS011;63685;47.374;8.498;2022-11-20T10:30:01;9.80;;;3.80;;
75098;SDS011;63685;47.374;8.498;2022-11-20T10:32:35;13.18;;;4.07;;
75098;SDS011;63685;47.374;8.498;2022-11-20T10:35:20;11.70;;;3.97;;
75098;SDS011;63685;47.374;8.498;2022-11-20T10:37:56;13.18;;;3.60;;
75098;SDS011;63685;47.374;8.498;2022-11-20T10:40:29;9.13;;;4.25;;
75098;SDS011;63685;47.374;8.498;2022-11-20T10:43:08;12.40;;;3.65;;
75098;SDS011;63685;47.374;8.498;2022-11-20T10:45:53;8.18;;;3.42;;
75098;SDS011;63685;47.374;8.498;2022-11-20T10:48:25;10.55;;;3.78;;
75098;SDS011;63685;47.374;8.498;2022-11-20T10:51:01;8.48;;;3.45;;
75098;SDS011;63685;47.374;8.498;2022-11-20T10:55:59;9.40;;;3.30;;
75098;SDS011;63685;47.374;8.498;2022-11-20T11:01:11;10.75;;;3.60;;
75098;SDS011;63685;47.374;8.498;2022-11-20T11:03:40;11.05;;;3.97;;
75098;SDS011;63685;47.374;8.498;2022-11-20T11:06:08;12.13;;;3.70;;
75098;SDS011;63685;47.374;8.498;2022-11-20T11:08:55;9.77;;;3.97;;
75098;SDS011;63685;47.374;8.498;2022-11-20T11:11:24;15.60;;;3.85;;
75098;SDS011;63685;47.374;8.498;2022-11-20T11:13:50;7.35;;;2.97;;
75098;SDS011;63685;47.374;8.498;2022-11-20T11:16:21;11.63;;;4.07;;
75098;SDS011;63685;47.374;8.498;2022-11-20T11:18:48;12.63;;;3.70;;
75098;SDS011;63685;47.374;8.498;2022-11-20T11:21:19;10.98;;;4.07;;
75098;SDS011;63685;47.374;8.498;2022-11-20T11:23:48;8.02;;;3.40;;
75098;SDS011;63685;47.374;8.498;2022-11-20T11:26:24;9.65;;;2.90;;
75098;SDS011;63685;47.374;8.498;2022-11-20T11:28:57;9.25;;;3.63;;
75098;SDS011;63685;47.374;8.498;2022-11-20T11:31:25;9.05;;;3.42;;
75098;SDS011;63685;47.374;8.498;2022-11-20T11:34:02;7.72;;;3.30;;
75098;SDS011;63685;47.374;8.498;2022-11-20T11:36:29;8.57;;;3.60;;
75098;SDS011;63685;47.374;8.498;2022-11-20T11:38:55;9.00;;;3.05;;
75098;SDS011;63685;47.374;8.498;2022-11-20T11:41:22;9.70;;;3.33;;
75098;SDS011;63685;47.374;8.498;2022-11-20T11:43:51;7.13;;;2.92;;
75098;SDS011;63685;47.374;8.498;2022-11-20T11:46:37;8.05;;;3.05;;
75098;SDS011;63685;47.374;8.498;2022-11-20T11:51:54;6.60;;;2.83;;
75098;SDS011;63685;47.374;8.498;2022-11-20T11:57:19;7.40;;;2.80;;
75098;SDS011;63685;47.374;8.498;2022-11-20T12:00:01;10.25;;;3.60;;
75098;SDS011;63685;47.374;8.498;2022-11-20T12:03:00;5.40;;;2.40;;
75098;SDS011;63685;47.374;8.498;2022-11-20T12:05:49;6.57;;;3.17;;
75098;SDS011;63685;47.374;8.498;2022-11-20T12:08:23;7.15;;;2.53;;
75098;SDS011;63685;47.374;8.498;2022-11-20T12:10:57;5.60;;;2.70;;
75098;SDS011;63685;47.374;8.498;2022-11-20T12:13:54;8.40;;;3.05;;
75098;SDS011;63685;47.374;8.498;2022-11-20T12:16:44;7.85;;;2.58;;
75098;SDS011;63685;47.374;8.498;2022-11-20T12:19:10;9.52;;;2.88;;
75098;SDS011;63685;47.374;8.498;2022-11-20T12:32:42;7.97;;;2.30;;
75098;SDS011;63685;47.374;8.498;2022-11-20T12:53:03;12.65;;;3.33;;
75098;SDS011;63685;47.374;8.498;2022-11-20T12:55:35;10.50;;;3.25;;
75098;SDS011;63685;47.374;8.498;2022-11-20T12:58:25;13.75;;;3.13;;
75098;SDS011;63685;47.374;8.498;2022-11-20T13:01:08;11.23;;;3.50;;
75098;SDS011;63685;47.374;8.498;2022-11-20T13:04:08;12.88;;;3.15;;
75098;SDS011;63685;47.374;8.498;2022-11-20T13:06:40;8.80;;;2.42;;
75098;SDS011;63685;47.374;8.498;2022-11-20T13:09:08;9.50;;;2.42;;
75098;SDS011;63685;47.374;8.498;2022-11-20T13:19:38;9.30;;;2.60;;
75098;SDS011;63685;47.374;8.498;2022-11-20T13:22:04;10.05;;;2.45;;
75098;SDS011;63685;47.374;8.498;2022-11-20T13:24:31;7.13;;;2.30;;
75098;SDS011;63685;47.374;8.498;2022-11-20T13:29:37;10.10;;;2.88;;
75098;SDS011;63685;47.374;8.498;2022-11-20T13:32:18;6.93;;;2.30;;
75098;SDS011;63685;47.374;8.498;2022-11-20T13:34:52;6.90;;;2.47;;
75098;SDS011;63685;47.374;8.498;2022-11-20T13:37:24;6.03;;;2.30;;
75098;SDS011;63685;47.374;8.498;2022-11-20T13:40:10;7.80;;;2.40;;
75098;SDS011;63685;47.374;8.498;2022-11-20T13:42:39;6.05;;;2.10;;
75098;SDS011;63685;47.374;8.498;2022-11-20T13:45:26;6.03;;;2.08;;
75098;SDS011;63685;47.374;8.498;2022-11-20T13:47:53;7.13;;;2.40;;
75098;SDS011;63685;47.374;8.498;2022-11-20T13:50:21;6.93;;;2.42;;
75098;SDS011;63685;47.374;8.498;2022-11-20T13:55:54;6.53;;;2.38;;
75098;SDS011;63685;47.374;8.498;2022-11-20T13:58:40;6.55;;;2.10;;
75098;SDS011;63685;47.374;8.498;2022-11-20T14:01:23;6.57;;;2.67;;
75098;SDS011;63685;47.374;8.498;2022-11-20T14:03:51;6.45;;;2.55;;
75098;SDS011;63685;47.374;8.498;2022-11-20T14:06:25;8.73;;;2.17;;
75098;SDS011;63685;47.374;8.498;2022-11-20T14:08:52;5.72;;;2.25;;
75098;SDS011;63685;47.374;8.498;2022-11-20T14:11:19;6.50;;;2.15;;
75098;SDS011;63685;47.374;8.498;2022-11-20T14:13:57;9.88;;;2.47;;
75098;SDS011;63685;47.374;8.498;2022-11-20T14:16:49;9.45;;;2.50;;
75098;SDS011;63685;47.374;8.498;2022-11-20T14:21:47;5.88;;;1.90;;
75098;SDS011;63685;47.374;8.498;2022-11-20T14:24:18;6.05;;;2.10;;
75098;SDS011;63685;47.374;8.498;2022-11-20T14:26:45;3.65;;;1.70;;
75098;SDS011;63685;47.374;8.498;2022-11-20T14:29:14;5.18;;;1.70;;
75098;SDS011;63685;47.374;8.498;2022-11-20T14:31:44;5.10;;;1.60;;
75098;SDS011;63685;47.374;8.498;2022-11-20T14:34:21;5.88;;;1.92;;
75098;SDS011;63685;47.374;8.498;2022-11-20T14:36:52;4.47;;;1.98;;
75098;SDS011;63685;47.374;8.498;2022-11-20T14:39:30;5.65;;;1.67;;
75098;SDS011;63685;47.374;8.498;2022-11-20T14:42:01;6.60;;;2.05;;
75098;SDS011;63685;47.374;8.498;2022-11-20T14:44:29;7.45;;;1.90;;
75098;SDS011;63685;47.374;8.498;2022-11-20T14:46:58;4.57;;;1.63;;
75098;SDS011;63685;47.374;8.498;2022-11-20T14:49:26;5.15;;;1.95;;
75098;SDS011;63685;47.374;8.498;2022-11-20T14:52:00;4.88;;;1.80;;
75098;SDS011;63685;47.374;8.498;2022-11-20T14:54:27;4.95;;;1.73;;
75098;SDS011;63685;47.374;8.498;2022-11-20T14:56:55;3.55;;;1.42;;
75098;SDS011;63685;47.374;8.498;2022-11-20T14:59:26;4.93;;;1.63;;
75098;SDS011;63685;47.374;8.498;2022-11-20T15:04:23;4.03;;;1.70;;
75098;SDS011;63685;47.374;8.498;2022-11-20T15:06:49;4.80;;;1.80;;
75098;SDS011;63685;47.374;8.498;2022-11-20T15:09:16;3.42;;;1.50;;
75098;SDS011;63685;47.374;8.498;2022-11-20T15:11:50;3.90;;;1.42;;
75098;SDS011;63685;47.374;8.498;2022-11-20T15:14:21;4.53;;;1.50;;
75098;SDS011;63685;47.374;8.498;2022-11-20T15:16:49;3.63;;;1.55;;
75098;SDS011;63685;47.374;8.498;2022-11-20T15:19:33;4.50;;;1.60;;
75098;SDS011;63685;47.374;8.498;2022-11-20T15:21:59;3.95;;;1.50;;
75098;SDS011;63685;47.374;8.498;2022-11-20T15:24:24;3.50;;;1.92;;
75098;SDS011;63685;47.374;8.498;2022-11-20T15:26:50;5.32;;;1.42;;
75098;SDS011;63685;47.374;8.498;2022-11-20T15:29:15;4.32;;;1.23;;
75098;SDS011;63685;47.374;8.498;2022-11-20T15:31:45;4.93;;;1.63;;
75098;SDS011;63685;47.374;8.498;2022-11-20T15:34:11;3.63;;;1.35;;
75098;SDS011;63685;47.374;8.498;2022-11-20T15:36:41;3.80;;;1.65;;
75098;SDS011;63685;47.374;8.498;2022-11-20T15:39:07;3.83;;;1.42;;
75098;SDS011;63685;47.374;8.498;2022-11-20T15:41:34;3.63;;;1.33;;
75098;SDS011;63685;47.374;8.498;2022-11-20T15:44:00;6.38;;;1.48;;
75098;SDS011;63685;47.374;8.498;2022-11-20T15:46:27;6.75;;;1.80;;
75098;SDS011;63685;47.374;8.498;2022-11-20T15:48:55;2.95;;;1.30;;
75098;SDS011;63685;47.374;8.498;2022-11-20T15:51:26;19.88;;;1.90;;
75098;SDS011;63685;47.374;8.498;2022-11-20T15:53:54;5.25;;;1.30;;
75098;SDS011;63685;47.374;8.498;2022-11-20T15:56:20;5.65;;;1.70;;
75098;SDS011;63685;47.374;8.498;2022-11-20T15:58:46;6.28;;;1.60;;
75098;SDS011;63685;47.374;8.498;2022-11-20T16:01:13;7.25;;;1.98;;
75098;SDS011;63685;47.374;8.498;2022-11-20T16:03:41;5.88;;;1.52;;
75098;SDS011;63685;47.374;8.498;2022-11-20T16:06:07;7.00;;;1.40;;
75098;SDS011;63685;47.374;8.498;2022-11-20T16:08:33;7.35;;;1.48;;
75098;SDS011;63685;47.374;8.498;2022-11-20T16:10:58;5.60;;;1.42;;
75098;SDS011;63685;47.374;8.498;2022-11-20T16:13:24;10.82;;;1.73;;
75098;SDS011;63685;47.374;8.498;2022-11-20T16:16:11;7.25;;;1.35;;